createdAt,value
2018-08-17T00:01:36.823Z,20.60
2018-08-17T00:04:04.115Z,20.60
2018-08-17T00:06:31.373Z,20.50
2018-08-17T00:08:58.720Z,20.50
2018-08-17T00:11:25.986Z,20.50
2018-08-17T00:13:53.560Z,20.50
2018-08-17T00:16:20.815Z,20.60
2018-08-17T00:18:48.038Z,20.60
2018-08-17T00:21:15.275Z,20.60
2018-08-17T00:23:42.488Z,20.50
2018-08-17T00:26:09.747Z,20.50
2018-08-17T00:28:36.992Z,20.40
2018-08-17T00:31:04.275Z,20.40
2018-08-17T00:33:31.499Z,20.30
2018-08-17T00:35:58.787Z,20.30
2018-08-17T00:38:26.002Z,20.20
2018-08-17T00:40:53.269Z,20.30
2018-08-17T00:43:20.499Z,20.40
2018-08-17T00:45:47.740Z,20.40
2018-08-17T00:48:15.026Z,20.40
2018-08-17T00:50:42.303Z,20.40
2018-08-17T00:53:09.608Z,20.40
2018-08-17T00:55:36.841Z,20.40
2018-08-17T00:58:04.100Z,20.30
2018-08-17T01:00:31.352Z,20.30
2018-08-17T01:02:58.599Z,20.30
2018-08-17T01:05:25.854Z,20.30
2018-08-17T01:07:53.077Z,20.30
2018-08-17T01:10:20.327Z,20.20
2018-08-17T01:12:47.657Z,20.20
2018-08-17T01:15:14.905Z,20.20
2018-08-17T01:17:42.147Z,20.10
2018-08-17T01:20:10.920Z,20.10
2018-08-17T01:22:38.394Z,20.10
2018-08-17T01:25:05.655Z,20.10
2018-08-17T01:27:32.891Z,20.10
2018-08-17T01:30:00.115Z,20.10
2018-08-17T01:32:27.453Z,20.10
2018-08-17T01:34:54.811Z,20.10
2018-08-17T01:37:22.044Z,20.10
2018-08-17T01:39:49.353Z,20.10
2018-08-17T01:42:16.551Z,20.00
2018-08-17T01:44:43.766Z,19.90
2018-08-17T01:47:10.982Z,19.90
2018-08-17T01:49:38.171Z,19.90
2018-08-17T01:52:05.363Z,20.00
2018-08-17T01:54:32.549Z,19.90
2018-08-17T01:56:59.848Z,19.90
2018-08-17T01:59:27.031Z,19.90
2018-08-17T02:01:54.223Z,19.80
2018-08-17T02:04:21.419Z,19.80
2018-08-17T02:06:48.612Z,19.80
2018-08-17T02:09:15.801Z,19.70
2018-08-17T02:11:43.452Z,19.70
2018-08-17T02:14:10.659Z,19.60
2018-08-17T02:16:38.455Z,19.70
2018-08-17T02:19:05.614Z,19.80
2018-08-17T02:21:32.868Z,19.80
2018-08-17T02:24:00.087Z,19.90
2018-08-17T02:26:27.329Z,19.80
2018-08-17T02:28:54.527Z,19.80
2018-08-17T02:31:21.747Z,19.70
2018-08-17T02:33:48.939Z,19.70
2018-08-17T02:36:16.167Z,19.70
2018-08-17T02:38:43.354Z,19.70
2018-08-17T02:41:10.570Z,19.60
2018-08-17T02:43:37.778Z,19.50
2018-08-17T02:46:05.015Z,19.40
2018-08-17T02:48:32.268Z,19.30
2018-08-17T02:50:59.454Z,19.30
2018-08-17T02:53:26.646Z,19.30
2018-08-17T02:55:53.840Z,19.30
2018-08-17T02:58:21.058Z,19.30
2018-08-17T03:00:48.246Z,19.40
2018-08-17T03:03:15.608Z,19.40
2018-08-17T03:05:42.795Z,19.40
2018-08-17T03:08:09.982Z,19.30
2018-08-17T03:10:37.162Z,19.30
2018-08-17T03:13:04.375Z,19.30
2018-08-17T03:15:31.672Z,19.30
2018-08-17T03:17:58.876Z,19.30
2018-08-17T03:20:26.055Z,19.30
2018-08-17T03:22:53.267Z,19.30
2018-08-17T03:25:20.464Z,19.30
2018-08-17T03:27:47.653Z,19.30
2018-08-17T03:30:14.839Z,19.30
2018-08-17T03:32:42.026Z,19.30
2018-08-17T03:35:09.222Z,19.20
2018-08-17T03:37:36.411Z,19.20
2018-08-17T03:40:03.896Z,19.20
2018-08-17T03:42:31.123Z,19.10
2018-08-17T03:44:58.312Z,19.10
2018-08-17T03:47:25.599Z,19.20
2018-08-17T03:49:52.788Z,19.20
2018-08-17T03:52:20.007Z,19.30
2018-08-17T03:54:47.210Z,19.20
2018-08-17T03:57:14.430Z,19.20
2018-08-17T03:59:41.612Z,19.20
2018-08-17T04:02:08.839Z,19.20
2018-08-17T04:04:36.206Z,19.30
2018-08-17T04:07:03.421Z,19.30
2018-08-17T04:09:30.606Z,19.30
2018-08-17T04:11:57.994Z,19.30
2018-08-17T04:14:25.366Z,19.30
2018-08-17T04:16:52.547Z,19.30
2018-08-17T04:19:19.739Z,19.30
2018-08-17T04:21:46.915Z,19.30
2018-08-17T04:24:14.120Z,19.30
2018-08-17T04:26:41.319Z,19.30
2018-08-17T04:29:08.543Z,19.40
2018-08-17T04:31:35.745Z,19.30
2018-08-17T04:34:02.990Z,19.50
2018-08-17T04:36:30.180Z,19.50
2018-08-17T04:38:57.373Z,19.60
2018-08-17T04:41:24.571Z,19.60
2018-08-17T04:43:51.776Z,19.60
2018-08-17T04:46:18.979Z,19.50
2018-08-17T04:48:46.164Z,19.50
2018-08-17T04:51:13.350Z,19.50
2018-08-17T04:53:40.534Z,19.60
2018-08-17T04:56:07.969Z,19.70
2018-08-17T04:58:35.267Z,19.80
2018-08-17T05:01:02.495Z,19.80
2018-08-17T05:03:29.770Z,19.90
2018-08-17T05:05:56.948Z,20.00
2018-08-17T05:08:24.134Z,20.10
2018-08-17T05:10:51.432Z,20.00
2018-08-17T05:13:18.623Z,20.10
2018-08-17T05:15:45.820Z,20.10
2018-08-17T05:18:13.007Z,20.30
2018-08-17T05:20:40.320Z,20.30
2018-08-17T05:23:07.517Z,20.30
2018-08-17T05:25:34.711Z,20.30
2018-08-17T05:28:01.912Z,20.40
2018-08-17T05:30:29.116Z,20.40
2018-08-17T05:32:56.255Z,20.50
2018-08-17T05:35:23.771Z,20.60
2018-08-17T05:37:50.926Z,20.70
2018-08-17T05:40:18.096Z,20.80
2018-08-17T05:42:45.267Z,20.90
2018-08-17T05:45:12.551Z,21.00
2018-08-17T05:47:39.609Z,21.00
2018-08-17T05:50:07.562Z,21.00
2018-08-17T05:52:34.926Z,21.10
2018-08-17T05:55:02.112Z,21.20
2018-08-17T05:57:29.268Z,21.40
2018-08-17T05:59:56.445Z,21.50
2018-08-17T06:02:23.658Z,21.60
2018-08-17T06:04:50.786Z,21.70
2018-08-17T06:07:17.968Z,21.80
2018-08-17T06:09:45.119Z,21.90
2018-08-17T06:12:12.279Z,22.00
2018-08-17T06:14:39.418Z,22.10
2018-08-17T06:17:06.603Z,22.10
2018-08-17T06:19:33.747Z,22.20
2018-08-17T06:22:01.107Z,22.30
2018-08-17T06:24:28.259Z,22.50
2018-08-17T06:26:55.458Z,22.70
2018-08-17T06:29:22.620Z,22.90
2018-08-17T06:31:49.885Z,23.00
2018-08-17T06:34:17.067Z,23.30
2018-08-17T06:36:44.283Z,23.40
2018-08-17T06:39:11.725Z,23.30
2018-08-17T06:41:38.999Z,23.50
2018-08-17T06:44:06.239Z,23.60
2018-08-17T06:46:33.485Z,23.40
2018-08-17T06:49:00.652Z,23.20
2018-08-17T06:51:27.946Z,23.10
2018-08-17T06:53:55.127Z,23.20
2018-08-17T06:56:22.304Z,23.10
2018-08-17T06:58:49.479Z,23.40
2018-08-17T07:01:16.639Z,23.50
2018-08-17T07:03:43.778Z,23.50
2018-08-17T07:06:10.986Z,23.50
2018-08-17T07:08:38.154Z,23.30
2018-08-17T07:11:05.342Z,23.30
2018-08-17T07:13:32.506Z,23.60
2018-08-17T07:15:59.667Z,24.10
2018-08-17T07:18:26.851Z,25.40
2018-08-17T07:20:54.055Z,26.90
2018-08-17T07:23:37.604Z,27.10
2018-08-17T07:26:15.902Z,26.50
2018-08-17T07:28:44.066Z,26.00
2018-08-17T07:31:11.210Z,26.00
2018-08-17T07:33:38.355Z,26.70
2018-08-17T07:36:05.523Z,26.90
2018-08-17T07:38:32.687Z,27.00
2018-08-17T07:40:59.834Z,26.80
2018-08-17T07:43:26.996Z,26.60
2018-08-17T07:45:54.155Z,26.80
2018-08-17T07:48:21.364Z,27.20
2018-08-17T07:50:48.472Z,27.70
2018-08-17T07:53:15.632Z,27.70
2018-08-17T07:55:42.778Z,27.50
2018-08-17T07:58:09.930Z,27.00
2018-08-17T08:00:37.063Z,26.90
2018-08-17T08:03:04.214Z,27.30
2018-08-17T08:05:31.380Z,27.50
2018-08-17T08:07:58.531Z,27.30
2018-08-17T08:10:25.691Z,27.40
2018-08-17T08:12:52.843Z,28.00
2018-08-17T08:15:19.998Z,28.90
2018-08-17T08:17:47.142Z,29.40
2018-08-17T08:20:26.052Z,28.70
2018-08-17T08:23:04.746Z,28.50
2018-08-17T08:25:31.900Z,28.60
2018-08-17T08:27:59.046Z,28.30
2018-08-17T08:30:26.222Z,27.90
2018-08-17T08:32:53.426Z,28.20
2018-08-17T08:35:20.607Z,30.00
2018-08-17T08:37:47.755Z,30.80
2018-08-17T08:40:14.923Z,31.10
2018-08-17T08:42:42.100Z,32.20
2018-08-17T08:45:09.279Z,33.10
2018-08-17T08:47:36.422Z,34.10
2018-08-17T08:50:04.022Z,34.50
2018-08-17T08:52:31.188Z,34.10
2018-08-17T08:54:58.355Z,34.70
2018-08-17T08:57:25.499Z,34.50
2018-08-17T08:59:52.651Z,35.20
2018-08-17T09:02:19.977Z,35.00
2018-08-17T09:04:47.127Z,35.10
2018-08-17T09:07:14.270Z,34.50
2018-08-17T09:09:41.427Z,35.00
2018-08-17T09:12:08.670Z,34.70
2018-08-17T09:14:35.819Z,35.10
2018-08-17T09:17:02.994Z,35.90
2018-08-17T09:19:30.145Z,36.10
2018-08-17T09:21:57.402Z,35.70
2018-08-17T09:24:24.559Z,36.40
2018-08-17T09:26:51.720Z,36.80
2018-08-17T09:29:19.006Z,36.90
2018-08-17T09:31:46.088Z,37.00
2018-08-17T09:34:13.299Z,37.30
2018-08-17T09:36:40.496Z,38.30
2018-08-17T09:39:08.140Z,39.20
2018-08-17T09:41:35.355Z,38.70
2018-08-17T09:44:02.621Z,38.50
2018-08-17T09:46:29.850Z,38.70
2018-08-17T09:48:57.046Z,38.90
2018-08-17T09:51:24.293Z,39.10
2018-08-17T09:53:51.468Z,38.60
2018-08-17T09:56:18.671Z,38.60
2018-08-17T09:58:45.869Z,38.60
2018-08-17T10:01:18.850Z,37.90
2018-08-17T10:03:51.897Z,37.50
2018-08-17T10:06:24.763Z,37.90
2018-08-17T10:08:57.815Z,37.80
2018-08-17T10:11:25.075Z,37.90
2018-08-17T10:13:52.273Z,38.00
2018-08-17T10:16:19.463Z,38.40
2018-08-17T10:18:46.654Z,38.90
2018-08-17T10:21:14.975Z,37.40
2018-08-17T10:23:41.992Z,37.50
2018-08-17T10:26:09.243Z,37.30
2018-08-17T10:28:36.559Z,37.50
2018-08-17T10:31:03.930Z,38.00
2018-08-17T10:33:31.114Z,38.40
2018-08-17T10:35:58.275Z,38.40
2018-08-17T10:38:25.871Z,38.00
2018-08-17T10:40:53.101Z,37.60
2018-08-17T10:43:20.188Z,37.50
2018-08-17T10:45:47.339Z,37.90
2018-08-17T10:48:14.527Z,37.90
2018-08-17T10:50:41.715Z,37.60
2018-08-17T10:53:08.850Z,36.80
2018-08-17T10:55:42.222Z,36.00
2018-08-17T10:58:11.319Z,35.80
2018-08-17T11:00:38.531Z,35.80
2018-08-17T11:03:05.747Z,34.90
2018-08-17T11:05:32.941Z,34.90
2018-08-17T11:08:00.114Z,35.20
2018-08-17T11:10:27.347Z,35.40
2018-08-17T11:12:54.487Z,36.00
2018-08-17T11:15:21.635Z,36.70
2018-08-17T11:17:48.804Z,37.30
2018-08-17T11:20:16.799Z,37.40
2018-08-17T11:22:44.028Z,36.50
2018-08-17T11:25:11.201Z,36.50
2018-08-17T11:27:38.360Z,36.10
2018-08-17T11:30:07.902Z,35.50
2018-08-17T11:32:35.135Z,35.10
2018-08-17T11:35:02.396Z,35.70
2018-08-17T11:37:29.639Z,35.10
2018-08-17T11:40:03.212Z,35.30
2018-08-17T11:42:35.096Z,35.40
2018-08-17T11:45:03.812Z,35.70
2018-08-17T11:47:31.031Z,36.10
2018-08-17T11:49:58.293Z,35.90
2018-08-17T11:52:26.025Z,36.40
2018-08-17T11:54:53.447Z,36.10
2018-08-17T11:57:20.647Z,36.00
2018-08-17T11:59:53.528Z,35.50
2018-08-17T12:02:20.737Z,34.40
2018-08-17T12:04:47.961Z,34.00
2018-08-17T12:07:15.305Z,34.00
2018-08-17T12:09:47.832Z,33.00
2018-08-17T12:12:15.110Z,32.20
2018-08-17T12:14:43.832Z,31.70
2018-08-17T12:17:11.027Z,31.60
2018-08-17T12:19:38.255Z,31.10
2018-08-17T12:22:05.756Z,31.20
2018-08-17T12:24:33.145Z,31.30
2018-08-17T12:27:00.175Z,31.00
2018-08-17T12:29:27.371Z,30.80
2018-08-17T12:31:54.541Z,30.60
2018-08-17T12:34:21.686Z,30.70
2018-08-17T12:36:48.850Z,30.70
2018-08-17T12:39:16.090Z,30.80
2018-08-17T12:41:43.234Z,31.10
2018-08-17T12:44:10.414Z,31.20
2018-08-17T12:46:37.674Z,31.70
2018-08-17T12:49:04.837Z,32.50
2018-08-17T12:51:31.989Z,33.60
2018-08-17T12:53:59.147Z,33.50
2018-08-17T12:56:26.302Z,34.30
2018-08-17T12:58:53.453Z,35.30
2018-08-17T13:01:20.607Z,35.80
2018-08-17T13:03:47.746Z,34.90
2018-08-17T13:06:14.911Z,35.20
2018-08-17T13:08:42.075Z,36.00
2018-08-17T13:11:09.234Z,36.10
2018-08-17T13:13:36.409Z,35.20
2018-08-17T13:16:03.598Z,34.50
2018-08-17T13:18:32.601Z,33.20
2018-08-17T13:20:59.846Z,32.40
2018-08-17T13:23:26.996Z,31.90
2018-08-17T13:25:54.171Z,31.20
2018-08-17T13:28:21.323Z,30.50
2018-08-17T13:30:48.502Z,30.20
2018-08-17T13:33:15.656Z,29.90
2018-08-17T13:35:42.820Z,29.90
2018-08-17T13:38:09.995Z,29.70
2018-08-17T13:40:37.134Z,29.70
2018-08-17T13:43:04.315Z,29.70
2018-08-17T13:45:31.479Z,30.00
2018-08-17T13:47:58.787Z,30.50
2018-08-17T13:50:25.969Z,30.70
2018-08-17T13:52:53.412Z,31.20
2018-08-17T13:55:20.611Z,31.40
2018-08-17T13:57:47.712Z,32.10
2018-08-17T14:00:14.907Z,32.90
2018-08-17T14:02:42.070Z,33.40
2018-08-17T14:05:10.153Z,34.10
2018-08-17T14:07:37.325Z,34.10
2018-08-17T14:10:05.436Z,33.20
2018-08-17T14:12:32.550Z,32.80
2018-08-17T14:15:00.597Z,32.50
2018-08-17T14:17:27.759Z,32.60
2018-08-17T14:19:54.923Z,32.40
2018-08-17T14:22:22.100Z,32.80
2018-08-17T14:24:49.251Z,33.00
2018-08-17T14:27:16.411Z,33.60
2018-08-17T14:29:43.571Z,34.30
2018-08-17T14:32:10.719Z,34.90
2018-08-17T14:34:37.880Z,35.40
2018-08-17T14:37:05.053Z,35.70
2018-08-17T14:39:32.218Z,36.30
2018-08-17T14:42:01.181Z,36.50
2018-08-17T14:44:28.846Z,36.00
2018-08-17T14:46:56.039Z,35.10
2018-08-17T14:49:23.680Z,34.10
2018-08-17T14:51:50.863Z,33.20
2018-08-17T14:54:18.139Z,32.30
2018-08-17T14:56:45.459Z,31.80
2018-08-17T14:59:12.618Z,31.40
2018-08-17T15:01:39.814Z,30.90
2018-08-17T15:04:07.158Z,30.40
2018-08-17T15:06:34.348Z,29.90
2018-08-17T15:09:01.499Z,29.60
2018-08-17T15:11:28.662Z,29.50
2018-08-17T15:13:55.823Z,29.40
2018-08-17T15:16:23.012Z,29.20
2018-08-17T15:18:50.170Z,29.10
2018-08-17T15:21:17.502Z,29.10
2018-08-17T15:23:44.663Z,29.20
2018-08-17T15:26:11.850Z,29.10
2018-08-17T15:28:39.109Z,29.10
2018-08-17T15:31:06.190Z,29.10
2018-08-17T15:33:33.359Z,29.00
2018-08-17T15:36:00.510Z,29.00
2018-08-17T15:38:27.671Z,29.00
2018-08-17T15:40:54.905Z,28.80
2018-08-17T15:43:21.997Z,28.80
2018-08-17T15:45:49.595Z,28.50
2018-08-17T15:48:17.101Z,28.30
2018-08-17T15:50:44.263Z,28.10
2018-08-17T15:53:11.423Z,28.00
2018-08-17T15:55:38.646Z,28.00
2018-08-17T15:58:05.923Z,27.90
2018-08-17T16:00:33.034Z,27.90
2018-08-17T16:03:00.194Z,28.00
2018-08-17T16:05:27.365Z,27.90
2018-08-17T16:07:54.516Z,28.00
2018-08-17T16:10:21.849Z,28.00
2018-08-17T16:12:48.976Z,28.10
2018-08-17T16:15:16.166Z,28.20
2018-08-17T16:17:43.366Z,28.20
2018-08-17T16:20:11.544Z,28.00
2018-08-17T16:22:39.014Z,28.00
2018-08-17T16:25:07.027Z,28.00
2018-08-17T16:27:34.266Z,27.90
2018-08-17T16:30:01.434Z,27.70
2018-08-17T16:32:28.619Z,27.80
2018-08-17T16:34:55.766Z,27.70
2018-08-17T16:37:22.983Z,27.70
2018-08-17T16:39:52.026Z,27.80
2018-08-17T16:42:24.786Z,27.70
2018-08-17T16:44:52.115Z,27.50
2018-08-17T16:47:19.266Z,27.40
2018-08-17T16:49:46.443Z,27.30
2018-08-17T16:52:13.587Z,27.10
2018-08-17T16:54:40.804Z,27.00
2018-08-17T16:57:07.988Z,26.90
2018-08-17T16:59:35.148Z,26.80
2018-08-17T17:02:02.351Z,26.70
2018-08-17T17:04:34.681Z,26.50
2018-08-17T17:07:02.031Z,26.40
2018-08-17T17:09:29.187Z,26.20
2018-08-17T17:11:56.348Z,26.10
2018-08-17T17:14:23.490Z,25.90
2018-08-17T17:16:50.641Z,25.70
2018-08-17T17:19:19.198Z,25.70
2018-08-17T17:21:47.282Z,25.50
2018-08-17T17:24:14.674Z,25.40
2018-08-17T17:26:42.220Z,25.30
2018-08-17T17:29:09.580Z,25.20
2018-08-17T17:31:36.827Z,25.20
2018-08-17T17:34:04.060Z,25.10
2018-08-17T17:36:31.361Z,25.00
2018-08-17T17:38:58.590Z,24.90
2018-08-17T17:41:25.809Z,24.80
2018-08-17T17:43:53.078Z,24.70
2018-08-17T17:46:20.297Z,24.60
2018-08-17T17:48:47.514Z,24.50
2018-08-17T17:51:14.746Z,24.50
2018-08-17T17:53:41.947Z,24.40
2018-08-17T17:56:09.204Z,24.30
2018-08-17T17:58:36.403Z,24.30
2018-08-17T18:01:06.530Z,24.40
2018-08-17T18:03:33.742Z,24.30
2018-08-17T18:06:03.066Z,24.30
2018-08-17T18:08:30.520Z,24.20
2018-08-17T18:10:57.810Z,24.10
2018-08-17T18:13:25.031Z,24.00
2018-08-17T18:15:52.258Z,24.00
2018-08-17T18:18:19.483Z,23.90
2018-08-17T18:20:46.723Z,23.80
2018-08-17T18:23:13.965Z,23.70
2018-08-17T18:25:41.178Z,23.70
2018-08-17T18:28:08.418Z,23.70
2018-08-17T18:30:35.638Z,23.60
2018-08-17T18:33:02.863Z,23.50
2018-08-17T18:35:30.091Z,23.50
2018-08-17T18:37:57.364Z,23.40
2018-08-17T18:40:24.629Z,23.40
2018-08-17T18:42:51.825Z,23.50
2018-08-17T18:45:19.051Z,23.50
2018-08-17T18:47:46.263Z,23.40
2018-08-17T18:50:13.472Z,23.30
2018-08-17T18:52:40.703Z,23.30
2018-08-17T18:55:07.937Z,23.30
2018-08-17T18:57:35.174Z,23.30
2018-08-17T19:00:02.480Z,23.30
2018-08-17T19:02:29.839Z,23.30
2018-08-17T19:04:57.083Z,23.30
2018-08-17T19:07:24.287Z,23.30
2018-08-17T19:09:54.050Z,23.30
2018-08-17T19:12:27.744Z,23.30
2018-08-17T19:14:57.853Z,23.30
2018-08-17T19:17:27.250Z,23.30
2018-08-17T19:19:54.466Z,23.30
2018-08-17T19:22:21.876Z,23.20
2018-08-17T19:24:50.166Z,23.20
2018-08-17T19:27:23.621Z,23.10
2018-08-17T19:29:51.437Z,23.10
2018-08-17T19:32:18.719Z,23.00
2018-08-17T19:34:45.850Z,22.90
2018-08-17T19:37:13.006Z,22.80
2018-08-17T19:39:43.521Z,22.80
2018-08-17T19:42:10.757Z,22.70
2018-08-17T19:44:38.038Z,22.70
2018-08-17T19:47:05.448Z,22.60
2018-08-17T19:49:32.791Z,22.50
2018-08-17T19:52:00.020Z,22.40
2018-08-17T19:54:27.300Z,22.30
2018-08-17T19:56:54.566Z,22.30
2018-08-17T19:59:21.883Z,22.20
2018-08-17T20:01:49.147Z,22.20
2018-08-17T20:04:16.491Z,22.10
2018-08-17T20:06:43.792Z,22.10
2018-08-17T20:09:11.162Z,22.00
2018-08-17T20:11:38.318Z,22.00
2018-08-17T20:14:05.606Z,21.90
2018-08-17T20:16:32.843Z,21.90
2018-08-17T20:19:00.649Z,21.80
2018-08-17T20:21:27.916Z,21.70
2018-08-17T20:23:55.080Z,21.60
2018-08-17T20:26:23.546Z,21.60
2018-08-17T20:28:50.667Z,21.50
2018-08-17T20:31:18.124Z,21.40
2018-08-17T20:33:45.393Z,21.40
2018-08-17T20:36:14.755Z,21.40
2018-08-17T20:38:41.929Z,21.40
2018-08-17T20:41:09.141Z,21.30
2018-08-17T20:43:36.373Z,21.30
2018-08-17T20:46:03.543Z,21.30
2018-08-17T20:48:30.776Z,21.30
2018-08-17T20:51:02.654Z,21.30
2018-08-17T20:53:29.892Z,21.20
2018-08-17T20:55:57.227Z,21.20
2018-08-17T20:58:24.386Z,21.20
2018-08-17T21:00:51.612Z,21.10
2018-08-17T21:03:18.783Z,21.10
2018-08-17T21:05:45.962Z,21.10
2018-08-17T21:08:13.115Z,21.00
2018-08-17T21:10:40.340Z,21.00
2018-08-17T21:13:07.556Z,20.90
2018-08-17T21:15:34.825Z,20.90
2018-08-17T21:18:02.102Z,20.90
2018-08-17T21:20:29.318Z,20.90
2018-08-17T21:22:56.565Z,20.90
2018-08-17T21:25:23.758Z,20.80
2018-08-17T21:27:50.927Z,20.80
2018-08-17T21:30:18.218Z,20.70
2018-08-17T21:32:45.506Z,20.70
2018-08-17T21:35:12.934Z,20.70
2018-08-17T21:37:40.187Z,20.70
2018-08-17T21:40:13.363Z,20.60
2018-08-17T21:42:40.590Z,20.60
2018-08-17T21:45:07.808Z,20.50
2018-08-17T21:47:35.119Z,20.50
2018-08-17T21:50:07.809Z,20.40
2018-08-17T21:52:35.111Z,20.20
2018-08-17T21:55:02.391Z,20.10
2018-08-17T21:57:29.640Z,20.00
2018-08-17T21:59:56.861Z,19.90
2018-08-17T22:02:24.235Z,19.70
2018-08-17T22:04:51.422Z,19.60
2018-08-17T22:07:20.975Z,19.50
2018-08-17T22:09:48.645Z,19.50
2018-08-17T22:12:15.952Z,19.30
2018-08-17T22:14:44.909Z,19.20
2018-08-17T22:17:23.830Z,19.00
2018-08-17T22:19:51.019Z,18.80
2018-08-17T22:22:18.337Z,18.70
2018-08-17T22:24:52.513Z,18.50
2018-08-17T22:27:20.191Z,18.30
2018-08-17T22:29:48.786Z,18.20
2018-08-17T22:32:15.932Z,18.20
2018-08-17T22:34:43.271Z,18.10
2018-08-17T22:37:10.613Z,18.10
2018-08-17T22:39:37.882Z,18.10
2018-08-17T22:42:05.536Z,18.10
2018-08-17T22:44:32.743Z,18.10
2018-08-17T22:47:11.802Z,18.10
2018-08-17T22:49:39.002Z,18.00
2018-08-17T22:52:06.287Z,17.90
2018-08-17T22:54:40.338Z,17.70
2018-08-17T22:57:08.334Z,17.60
2018-08-17T22:59:35.552Z,17.50
2018-08-17T23:02:02.799Z,17.40
2018-08-17T23:04:29.991Z,17.40
2018-08-17T23:06:57.210Z,17.40
2018-08-17T23:09:24.411Z,17.30
2018-08-17T23:11:51.619Z,17.30
2018-08-17T23:14:18.858Z,17.30
2018-08-17T23:16:46.471Z,17.30
2018-08-17T23:19:13.708Z,17.30
2018-08-17T23:21:40.950Z,17.30
2018-08-17T23:24:08.843Z,17.20
2018-08-17T23:26:35.994Z,17.10
2018-08-17T23:29:03.218Z,17.10
2018-08-17T23:31:30.391Z,17.00
2018-08-17T23:33:57.742Z,16.90
2018-08-17T23:36:25.006Z,16.90
2018-08-17T23:38:52.174Z,16.90
2018-08-17T23:41:19.429Z,16.90
2018-08-17T23:43:46.516Z,16.90
2018-08-17T23:46:13.680Z,16.90
2018-08-17T23:48:40.839Z,16.80
2018-08-17T23:51:08.023Z,16.80
2018-08-17T23:53:35.264Z,16.80
2018-08-17T23:56:02.375Z,16.80
2018-08-17T23:58:29.542Z,16.80
